METAR Data
IDs: Format: Raw Decoded Include TAF

Data at: 0111 UTC 06 Dec 2019

KCQX 060052Z AUTO 28010G21KT 10SM OVC065 03/M08 A2982 RMK AO2 SLP101 T00331078
KCQX 052352Z AUTO 29011G22KT 250V320 10SM OVC060 04/M06 A2981 RMK AO2 SLP095 T00391056 10072 20039 51040
KCQX 052252Z AUTO 28009G17KT 10SM OVC060 04/M03 A2977 RMK AO2 SLP083 T00441033
KCQX 052152Z AUTO 27007KT 10SM OVC055 05/M03 A2973 RMK AO2 SLP069 T00501028
KCQX 052052Z AUTO 27004KT 10SM OVC050 06/M03 A2969 RMK AO2 SLP055 T00561028 53026
KCQX 051952Z AUTO 30006KT 10SM SCT038 BKN050 07/M02 A2965 RMK AO2 SLP042 T00671017
KCQX 051852Z AUTO 30006KT 10SM FEW034 07/M01 A2963 RMK AO2 SLP034 T00671011
KCQX 051752Z AUTO VRB05KT 10SM FEW031 06/M01 A2961 RMK AO2 SLP029 T00611011 10067 20006 53004
KCQX 051652Z AUTO 28006KT 10SM CLR 06/M01 A2960 RMK AO2 SLP026 T00611006
KCQX 051552Z AUTO VRB05G17KT 10SM CLR 06/00 A2960 RMK AO2 SLP026 T00560000
KCQX 051452Z AUTO 32008KT 10SM CLR 06/M01 A2960 RMK AO2 SLP025 T00561006 51016
KCQX 051352Z AUTO VRB04KT 10SM CLR 03/00 A2958 RMK AO2 SLP020 T00330000
KCQX 051252Z AUTO 29003KT 10SM CLR 01/M01 A2957 RMK AO2 SLP017 T00111006
KCQX 051152Z AUTO VRB04KT 10SM FEW120 01/M01 A2955 RMK AO2 SLP008 T00061011 10017 20000 53020
KCQX 051052Z AUTO VRB03KT 10SM OVC095 00/M01 A2953 RMK AO2 SLP001 T00001011
KCQX 050952Z AUTO 26003KT 10SM FEW095 00/M01 A2951 RMK AO2 SLP994 T00001011
KCQX 050852Z AUTO 30003KT 10SM CLR 01/M01 A2949 RMK AO2 SLP989 T00061011 51006
KCQX 050752Z AUTO 29003KT 10SM SCT110 01/M01 A2949 RMK AO2 SLP988 T00061011
KCQX 050652Z AUTO 28004KT 10SM SCT050 02/M01 A2948 RMK AO2 SLP986 T00171006
KCQX 050552Z AUTO 27005KT 10SM OVC048 02/M01 A2947 RMK AO2 SLP982 T00171011 10028 20011 57002
KCQX 050452Z AUTO 27003KT 10SM OVC047 01/M01 A2947 RMK AO2 SLP982 T00111011 400441028
KCQX 050352Z AUTO 00000KT 10SM OVC042 02/M01 A2948 RMK AO2 SLP985 T00221006
KCQX 050252Z AUTO 24003KT 10SM OVC042 03/M01 A2948 RMK AO2 SLP985 T00281006 56004
KCQX 050152Z AUTO 25003KT 10SM OVC036 03/M01 A2948 RMK AO2 SLP986 T00281011
KCQX 050052Z AUTO 26003KT 10SM OVC035 02/M01 A2949 RMK AO2 SLP988 T00221011
KCQX 042352Z AUTO 00000KT 10SM SCT041 OVC049 02/M01 A2949 RMK AO2 SLP989 T00171006 10033 20011 51002
KCQX 042252Z AUTO 00000KT 10SM FEW110 01/M01 A2949 RMK AO2 SLP989 T00111011
KCQX 042152Z AUTO 00000KT 10SM OVC055 02/M01 A2949 RMK AO2 SLP988 T00221011
KCQX 042052Z AUTO 00000KT 8SM OVC060 03/M01 A2949 RMK AO2 SLP987 T00281011 56006
KCQX 041952Z AUTO 00000KT 10SM OVC070 03/M02 A2949 RMK AO2 SLP987 T00281017
KCQX 041852Z AUTO 00000KT 10SM OVC080 03/M01 A2949 RMK AO2 SLP989 T00331011
KCQX 041752Z AUTO 26009KT 10SM BKN100 03/M01 A2950 RMK AO2 SLP993 T00331011 10044 21011 56016
KCQX 041652Z AUTO 24005KT 10SM BKN100 03/M02 A2952 RMK AO2 SLP997 T00331022
KCQX 041552Z AUTO 24007KT 10SM CLR 03/M03 A2953 RMK AO2 SLP001 T00331028
KCQX 041452Z AUTO 26003KT 10SM BKN120 02/M03 A2955 RMK AO2 SLP008 T00221033 55005
KCQX 041352Z AUTO 00000KT 10SM BKN110 00/M04 A2955 RMK AO2 SLP007 T00001044